Terminal Aerodrome Forecast
Issued by NWS Pueblo, CO

Home | Current Version | Previous Version | Text Only | Print | Product List | Glossary On
Versions: 1 2 3 4 5 6 7 8 9 10 11 12 13 14 15 16 17 18 19 20 21 22 23 24 25 26 27 28 29 30
467
FTUS45 KPUB 281843 AAA
TAFCOS
TAF AMD
KCOS 281843Z 2819/2918 12008KT P6SM VCTS SCT080CB SCT130 BKN200
      TEMPO 2819/2822 VRB15G25KT 5SM -TSRA BKN060CB
     FM282200 02012KT P6SM VCTS SCT070CB BKN100
      TEMPO 2822/2901 VRB15G30KT BKN060CB
     FM290300 02010KT P6SM SCT080 BKN100
     FM290600 36010KT P6SM SCT100 BKN150=

USA.gov is the U.S. government's official web portal to all federal, state and local government web resources and services.